Time,TemperatureF,DewpointF,PressureIn,WindDirection,WindDirectionDegrees,WindSpeedMPH,WindSpeedGustMPH,Humidity,HourlyPrecipIn,Conditions,Clouds,dailyrainin,SolarRadiationWatts/m^2,SoftwareType,DateUTC
2013-08-28 00:02:00,70.4,67.7,30.04,North,-999,-999.0,0.0,91,0.00,,CLR,0.00,0.00,VWS V14.01,2013-08-28 04:02:00,
2013-08-28 00:17:00,70.3,67.6,30.04,North,-999,-999.0,0.0,91,0.00,,CLR,0.00,0.00,VWS V14.01,2013-08-28 04:17:00,
2013-08-28 00:32:00,70.0,67.3,30.04,North,-999,-999.0,0.0,91,0.00,,CLR,0.00,0.00,VWS V14.01,2013-08-28 04:32:00,
2013-08-28 00:47:00,70.0,67.6,30.03,North,-999,-999.0,0.0,92,0.00,,CLR,0.00,0.00,VWS V14.01,2013-08-28 04:47:00,
2013-08-28 01:02:00,69.9,67.5,30.03,North,-999,-999.0,0.0,92,0.00,,CLR,0.00,0.00,VWS V14.01,2013-08-28 05:02:00,
2013-08-28 01:17:00,69.8,67.4,30.02,North,-999,-999.0,0.0,92,0.00,,CLR,0.00,0.00,VWS V14.01,2013-08-28 05:17:00,
2013-08-28 01:32:00,69.4,67.0,30.02,North,-999,-999.0,0.0,92,0.00,,CLR,0.00,0.00,VWS V14.01,2013-08-28 05:32:00,
2013-08-28 01:47:00,69.4,67.0,30.02,North,-999,-999.0,0.0,92,0.00,,CLR,0.00,0.00,VWS V14.01,2013-08-28 05:47:00,
2013-08-28 02:02:00,69.3,66.9,30.01,North,-999,-999.0,0.0,92,0.00,,CLR,0.00,0.00,VWS V14.01,2013-08-28 06:02:00,
2013-08-28 02:17:00,69.4,67.0,30.01,North,-999,-999.0,0.0,92,0.00,,CLR,0.00,0.00,VWS V14.01,2013-08-28 06:17:00,
2013-08-28 02:32:00,69.3,66.9,30.00,North,-999,-999.0,0.0,92,0.00,,CLR,0.00,0.00,VWS V14.01,2013-08-28 06:32:00,
2013-08-28 02:47:00,69.2,67.1,30.00,North,-999,-999.0,0.0,93,0.00,,CLR,0.00,0.00,VWS V14.01,2013-08-28 06:47:00,
2013-08-28 03:02:00,69.3,67.2,30.00,North,-999,-999.0,0.0,93,0.00,,CLR,0.00,0.00,VWS V14.01,2013-08-28 07:02:00,
2013-08-28 03:17:00,69.2,67.1,30.00,North,-999,-999.0,0.0,93,0.00,,CLR,0.00,0.00,VWS V14.01,2013-08-28 07:17:00,
2013-08-28 03:32:00,69.0,66.9,29.99,North,-999,-999.0,0.0,93,0.00,,CLR,0.00,0.00,VWS V14.01,2013-08-28 07:32:00,
2013-08-28 03:47:00,68.9,66.8,29.98,North,-999,-999.0,0.0,93,0.00,,CLR,0.00,0.00,VWS V14.01,2013-08-28 07:47:00,
2013-08-28 04:02:00,68.9,66.8,29.98,North,-999,-999.0,0.0,93,0.00,,CLR,0.00,0.00,VWS V14.01,2013-08-28 08:02:00,
2013-08-28 04:17:00,68.8,66.7,29.98,North,-999,-999.0,0.0,93,0.00,,CLR,0.00,0.00,VWS V14.01,2013-08-28 08:17:00,
2013-08-28 04:32:00,68.7,66.6,29.98,North,-999,-999.0,0.0,93,0.00,,CLR,0.00,0.00,VWS V14.01,2013-08-28 08:32:00,
2013-08-28 04:47:00,68.8,66.7,29.98,North,-999,-999.0,0.0,93,0.00,,CLR,0.00,0.00,VWS V14.01,2013-08-28 08:47:00,
2013-08-28 05:02:00,68.7,66.6,29.99,North,-999,-999.0,0.0,93,0.00,,CLR,0.00,0.00,VWS V14.01,2013-08-28 09:02:00,
2013-08-28 05:17:00,68.7,66.6,29.99,North,-999,-999.0,0.0,93,0.00,,CLR,0.00,0.00,VWS V14.01,2013-08-28 09:17:00,
2013-08-28 05:32:00,68.6,66.5,29.99,North,-999,-999.0,0.0,93,0.00,,CLR,0.00,0.00,VWS V14.01,2013-08-28 09:32:00,
2013-08-28 05:47:00,68.5,66.4,30.00,North,-999,-999.0,0.0,93,0.00,,CLR,0.00,0.00,VWS V14.01,2013-08-28 09:47:00,
2013-08-28 06:02:00,68.4,66.3,29.99,North,-999,-999.0,0.0,93,0.00,,CLR,0.00,0.00,VWS V14.01,2013-08-28 10:02:00,
2013-08-28 06:17:00,68.3,66.2,30.00,North,-999,-999.0,0.0,93,0.00,,CLR,0.00,0.00,VWS V14.01,2013-08-28 10:17:00,
2013-08-28 06:32:00,68.2,66.1,29.99,North,-999,-999.0,0.0,93,0.00,,CLR,0.00,0.00,VWS V14.01,2013-08-28 10:32:00,
2013-08-28 06:47:00,68.1,66.0,30.00,North,-999,-999.0,0.0,93,0.00,,CLR,0.00,0.00,VWS V14.01,2013-08-28 10:47:00,
2013-08-28 07:02:00,68.1,66.0,30.00,North,-999,-999.0,0.0,93,0.00,,CLR,0.00,0.00,VWS V14.01,2013-08-28 11:02:00,
2013-08-28 07:17:00,68.0,65.9,30.01,North,-999,-999.0,0.0,93,0.00,,CLR,0.00,5.00,VWS V14.01,2013-08-28 11:17:00,
2013-08-28 07:32:00,68.0,65.9,30.01,North,-999,-999.0,0.0,93,0.00,,CLR,0.00,12.00,VWS V14.01,2013-08-28 11:32:00,
2013-08-28 07:47:00,68.2,66.1,30.01,North,-999,-999.0,0.0,93,0.00,,CLR,0.00,19.00,VWS V14.01,2013-08-28 11:47:00,
2013-08-28 08:02:00,68.4,66.3,30.01,North,-999,-999.0,0.0,93,0.00,,CLR,0.00,33.00,VWS V14.01,2013-08-28 12:02:00,
2013-08-28 08:17:00,68.7,66.6,30.02,North,-999,-999.0,0.0,93,0.00,,CLR,0.00,35.00,VWS V14.01,2013-08-28 12:17:00,
2013-08-28 08:32:00,69.2,67.1,30.01,North,-999,-999.0,0.0,93,0.00,,CLR,0.00,44.00,VWS V14.01,2013-08-28 12:32:00,
2013-08-28 08:47:00,69.7,67.6,30.02,North,-999,-999.0,0.0,93,0.00,,CLR,0.00,49.00,VWS V14.01,2013-08-28 12:47:00,
2013-08-28 09:02:00,70.3,68.2,30.02,North,-999,-999.0,0.0,93,0.00,,CLR,0.00,69.00,VWS V14.01,2013-08-28 13:02:00,
2013-08-28 09:17:00,71.0,68.9,30.02,North,-999,-999.0,0.0,93,0.00,,CLR,0.00,81.00,VWS V14.01,2013-08-28 13:17:00,
2013-08-28 09:32:00,71.5,69.4,30.02,North,-999,-999.0,0.0,93,0.00,,CLR,0.00,83.00,VWS V14.01,2013-08-28 13:32:00,
2013-08-28 09:47:00,72.0,69.9,30.02,North,-999,-999.0,0.0,93,0.00,,CLR,0.00,97.00,VWS V14.01,2013-08-28 13:47:00,
2013-08-28 10:02:00,72.6,70.5,30.02,North,-999,-999.0,0.0,93,0.00,,CLR,0.00,107.00,VWS V14.01,2013-08-28 14:02:00,
2013-08-28 10:17:00,74.2,72.1,30.02,North,-999,-999.0,0.0,93,0.00,,CLR,0.00,139.00,VWS V14.01,2013-08-28 14:17:00,
2013-08-28 10:32:00,75.1,72.0,30.02,North,-999,-999.0,0.0,90,0.00,,CLR,0.00,186.00,VWS V14.01,2013-08-28 14:32:00,
2013-08-28 10:47:00,75.8,71.7,30.02,North,-999,-999.0,0.0,87,0.00,,CLR,0.00,171.00,VWS V14.01,2013-08-28 14:47:00,
2013-08-28 11:02:00,76.8,72.3,30.02,North,-999,-999.0,0.0,86,0.00,,CLR,0.00,202.00,VWS V14.01,2013-08-28 15:02:00,
2013-08-28 11:17:00,77.5,73.3,30.02,North,-999,-999.0,0.0,87,0.00,,CLR,0.00,656.00,VWS V14.01,2013-08-28 15:17:00,
2013-08-28 11:32:00,80.5,71.1,30.03,North,-999,-999.0,0.0,73,0.00,,CLR,0.00,100.00,VWS V14.01,2013-08-28 15:32:00,
2013-08-28 11:47:00,80.0,73.3,30.03,North,-999,-999.0,0.0,80,0.00,,CLR,0.00,241.00,VWS V14.01,2013-08-28 15:47:00,
2013-08-28 12:02:00,80.3,73.6,30.03,North,-999,-999.0,1.0,80,0.00,,CLR,0.00,740.00,VWS V14.01,2013-08-28 16:02:00,
2013-08-28 12:17:00,81.5,74.4,30.02,North,-999,-999.0,1.0,79,0.00,,CLR,0.00,766.00,VWS V14.01,2013-08-28 16:17:00,
2013-08-28 12:32:00,81.1,74.3,30.02,North,-999,-999.0,2.0,80,0.00,,CLR,0.00,793.00,VWS V14.01,2013-08-28 16:32:00,
2013-08-28 12:47:00,81.5,74.0,30.02,North,-999,-999.0,1.0,78,0.00,,CLR,0.00,508.00,VWS V14.01,2013-08-28 16:47:00,
2013-08-28 13:02:00,82.2,72.7,30.02,North,-999,-999.0,1.0,73,0.00,,CLR,0.00,496.00,VWS V14.01,2013-08-28 17:02:00,
2013-08-28 13:17:00,82.1,73.4,30.02,North,-999,-999.0,1.0,75,0.00,,CLR,0.00,666.00,VWS V14.01,2013-08-28 17:17:00,
2013-08-28 13:32:00,83.3,71.6,30.02,North,-999,-999.0,1.0,68,0.00,,CLR,0.00,807.00,VWS V14.01,2013-08-28 17:32:00,
2013-08-28 13:47:00,82.9,71.7,30.01,North,-999,-999.0,1.0,69,0.00,,CLR,0.00,200.00,VWS V14.01,2013-08-28 17:47:00,
2013-08-28 14:02:00,80.3,73.9,30.01,North,-999,-999.0,0.0,81,0.00,,CLR,0.00,169.00,VWS V14.01,2013-08-28 18:02:00,
2013-08-28 14:17:00,79.6,74.0,30.00,North,-999,-999.0,0.0,83,0.00,,CLR,0.00,149.00,VWS V14.01,2013-08-28 18:17:00,
2013-08-28 14:32:00,81.4,74.3,30.00,North,-999,-999.0,1.0,79,0.00,,CLR,0.00,111.00,VWS V14.01,2013-08-28 18:32:00,
2013-08-28 14:47:00,81.1,74.3,29.99,North,-999,-999.0,1.0,80,0.00,,CLR,0.00,223.00,VWS V14.01,2013-08-28 18:47:00,
2013-08-28 15:02:00,80.9,73.8,29.98,North,-999,-999.0,0.0,79,0.00,,CLR,0.00,90.00,VWS V14.01,2013-08-28 19:02:00,
2013-08-28 15:17:00,81.1,74.7,29.98,North,-999,-999.0,1.0,81,0.00,,CLR,0.00,186.00,VWS V14.01,2013-08-28 19:17:00,
2013-08-28 15:32:00,80.8,74.1,29.98,North,-999,-999.0,1.0,80,0.00,,CLR,0.00,105.00,VWS V14.01,2013-08-28 19:32:00,
2013-08-28 15:47:00,81.7,75.3,29.97,North,-999,-999.0,1.0,81,0.00,,CLR,0.00,135.00,VWS V14.01,2013-08-28 19:47:00,
2013-08-28 16:02:00,81.4,75.0,29.97,North,-999,-999.0,1.0,81,0.00,,CLR,0.00,134.00,VWS V14.01,2013-08-28 20:02:00,
2013-08-28 16:17:00,81.1,73.6,29.97,North,-999,-999.0,1.0,78,0.00,,CLR,0.00,65.00,VWS V14.01,2013-08-28 20:17:00,
2013-08-28 16:32:00,80.0,73.3,29.96,North,-999,-999.0,0.0,80,0.00,,CLR,0.00,58.00,VWS V14.01,2013-08-28 20:32:00,
2013-08-28 16:47:00,79.8,73.8,29.95,North,-999,-999.0,0.0,82,0.00,,CLR,0.00,413.00,VWS V14.01,2013-08-28 20:47:00,
2013-08-28 17:02:00,80.3,73.9,29.95,North,-999,-999.0,0.0,81,0.00,,CLR,0.00,54.00,VWS V14.01,2013-08-28 21:02:00,
2013-08-28 17:17:00,79.9,73.6,29.95,North,-999,-999.0,0.0,81,0.00,,CLR,0.00,51.00,VWS V14.01,2013-08-28 21:17:00,
2013-08-28 17:32:00,79.9,73.9,29.95,North,-999,-999.0,0.0,82,0.00,,CLR,0.00,44.00,VWS V14.01,2013-08-28 21:32:00,
2013-08-28 17:47:00,79.6,74.0,29.95,North,-999,-999.0,0.0,83,0.00,,CLR,0.00,40.00,VWS V14.01,2013-08-28 21:47:00,
2013-08-28 18:02:00,79.3,73.7,29.95,North,-999,-999.0,0.0,83,0.00,,CLR,0.00,35.00,VWS V14.01,2013-08-28 22:02:00,
2013-08-28 18:17:00,78.9,73.3,29.95,North,-999,-999.0,0.0,83,0.00,,CLR,0.00,28.00,VWS V14.01,2013-08-28 22:17:00,
2013-08-28 18:32:00,78.7,73.5,29.95,North,-999,-999.0,0.0,84,0.00,,CLR,0.00,25.00,VWS V14.01,2013-08-28 22:32:00,
2013-08-28 18:47:00,78.6,73.7,29.94,North,-999,-999.0,0.0,85,0.00,,CLR,0.00,19.00,VWS V14.01,2013-08-28 22:47:00,
2013-08-28 19:02:00,78.3,73.4,29.95,North,-999,-999.0,0.0,85,0.00,,CLR,0.00,16.00,VWS V14.01,2013-08-28 23:02:00,
2013-08-28 19:17:00,78.0,73.5,29.94,North,-999,-999.0,0.0,86,0.00,,CLR,0.00,12.00,VWS V14.01,2013-08-28 23:17:00,
2013-08-28 19:32:00,77.5,73.3,29.94,North,-999,-999.0,0.0,87,0.00,,CLR,0.00,9.00,VWS V14.01,2013-08-28 23:32:00,
2013-08-28 19:47:00,77.1,72.9,29.95,North,-999,-999.0,0.0,87,0.00,,CLR,0.00,5.00,VWS V14.01,2013-08-28 23:47:00,
2013-08-28 20:02:00,76.5,72.7,29.95,North,-999,-999.0,0.0,88,0.00,,CLR,0.00,0.00,VWS V14.01,2013-08-29 00:02:00,
2013-08-28 20:17:00,76.0,72.5,29.95,North,-999,-999.0,0.0,89,0.00,,CLR,0.00,0.00,VWS V14.01,2013-08-29 00:17:00,
2013-08-28 20:32:00,75.8,72.7,29.95,North,-999,-999.0,0.0,90,0.00,,CLR,0.00,0.00,VWS V14.01,2013-08-29 00:32:00,
2013-08-28 20:47:00,75.5,72.4,29.96,North,-999,-999.0,0.0,90,0.00,,CLR,0.00,0.00,VWS V14.01,2013-08-29 00:47:00,
2013-08-28 21:02:00,75.2,72.1,29.96,North,-999,-999.0,0.0,90,0.00,,CLR,0.00,0.00,VWS V14.01,2013-08-29 01:02:00,
2013-08-28 21:17:00,75.1,72.3,29.96,North,-999,-999.0,0.0,91,0.00,,CLR,0.00,0.00,VWS V14.01,2013-08-29 01:17:00,
2013-08-28 21:32:00,74.8,72.0,29.96,North,-999,-999.0,0.0,91,0.00,,CLR,0.00,0.00,VWS V14.01,2013-08-29 01:32:00,
2013-08-28 21:47:00,74.6,71.8,29.96,North,-999,-999.0,0.0,91,0.00,,CLR,0.00,0.00,VWS V14.01,2013-08-29 01:47:00,
2013-08-28 22:02:00,74.6,71.8,29.96,North,-999,-999.0,0.0,91,0.00,,CLR,0.00,0.00,VWS V14.01,2013-08-29 02:02:00,
2013-08-28 22:17:00,74.6,71.8,29.97,North,-999,-999.0,0.0,91,0.00,,CLR,0.00,0.00,VWS V14.01,2013-08-29 02:17:00,
2013-08-28 22:32:00,74.7,71.9,29.96,North,-999,-999.0,0.0,91,0.00,,CLR,0.00,0.00,VWS V14.01,2013-08-29 02:32:00,
2013-08-28 22:47:00,74.6,71.8,29.96,North,-999,-999.0,0.0,91,0.00,,CLR,0.00,0.00,VWS V14.01,2013-08-29 02:47:00,
2013-08-28 23:02:00,74.6,71.8,29.96,North,-999,-999.0,0.0,91,0.00,,CLR,0.00,0.00,VWS V14.01,2013-08-29 03:02:00,
2013-08-28 23:17:00,74.6,71.8,29.96,North,-999,-999.0,0.0,91,0.00,,CLR,0.00,0.00,VWS V14.01,2013-08-29 03:17:00,
2013-08-28 23:32:00,74.7,71.9,29.96,North,-999,-999.0,0.0,91,0.00,,CLR,0.00,0.00,VWS V14.01,2013-08-29 03:32:00,
2013-08-28 23:47:00,74.6,71.8,29.95,North,-999,-999.0,0.0,91,0.00,,CLR,0.00,0.00,VWS V14.01,2013-08-29 03:47:00,